sensor_id;sensor_type;location;lat;lon;timestamp;temperature;humidity
20672;DHT22;10495;50.922;4.760;2023-04-24T00:01:24;11.60;88.00
20672;DHT22;10495;50.922;4.760;2023-04-24T00:03:50;11.50;88.10
20672;DHT22;10495;50.922;4.760;2023-04-24T00:06:15;11.40;88.30
20672;DHT22;10495;50.922;4.760;2023-04-24T00:08:42;11.30;88.50
20672;DHT22;10495;50.922;4.760;2023-04-24T00:11:08;11.40;88.80
20672;DHT22;10495;50.922;4.760;2023-04-24T00:13:35;11.50;88.70
20672;DHT22;10495;50.922;4.760;2023-04-24T00:16:00;11.40;88.50
20672;DHT22;10495;50.922;4.760;2023-04-24T00:18:26;11.40;88.40
20672;DHT22;10495;50.922;4.760;2023-04-24T00:20:52;11.50;87.90
20672;DHT22;10495;50.922;4.760;2023-04-24T00:23:17;11.60;87.80
20672;DHT22;10495;50.922;4.760;2023-04-24T00:25:43;11.60;87.80
20672;DHT22;10495;50.922;4.760;2023-04-24T00:28:09;11.70;87.40
20672;DHT22;10495;50.922;4.760;2023-04-24T00:30:36;11.70;87.40
20672;DHT22;10495;50.922;4.760;2023-04-24T00:33:01;11.80;87.00
20672;DHT22;10495;50.922;4.760;2023-04-24T00:35:27;11.90;86.90
20672;DHT22;10495;50.922;4.760;2023-04-24T00:37:52;11.60;87.60
20672;DHT22;10495;50.922;4.760;2023-04-24T00:40:18;11.70;87.30
20672;DHT22;10495;50.922;4.760;2023-04-24T00:42:44;11.60;87.10
20672;DHT22;10495;50.922;4.760;2023-04-24T00:45:10;11.60;87.40
20672;DHT22;10495;50.922;4.760;2023-04-24T00:47:36;11.70;87.20
20672;DHT22;10495;50.922;4.760;2023-04-24T00:50:06;11.50;87.20
20672;DHT22;10495;50.922;4.760;2023-04-24T00:52:32;11.40;87.90
20672;DHT22;10495;50.922;4.760;2023-04-24T00:54:58;11.40;88.10
20672;DHT22;10495;50.922;4.760;2023-04-24T00:57:24;11.40;88.80
20672;DHT22;10495;50.922;4.760;2023-04-24T00:59:51;11.30;88.50
20672;DHT22;10495;50.922;4.760;2023-04-24T01:02:19;11.30;88.70
20672;DHT22;10495;50.922;4.760;2023-04-24T01:04:45;11.10;89.40
20672;DHT22;10495;50.922;4.760;2023-04-24T01:07:10;11.00;89.70
20672;DHT22;10495;50.922;4.760;2023-04-24T01:09:40;11.00;90.00
20672;DHT22;10495;50.922;4.760;2023-04-24T01:12:09;11.20;89.70
20672;DHT22;10495;50.922;4.760;2023-04-24T01:14:35;11.20;89.00
20672;DHT22;10495;50.922;4.760;2023-04-24T01:17:00;11.10;89.40
20672;DHT22;10495;50.922;4.760;2023-04-24T01:19:27;11.10;89.60
20672;DHT22;10495;50.922;4.760;2023-04-24T01:21:54;11.10;89.80
20672;DHT22;10495;50.922;4.760;2023-04-24T01:24:21;11.20;89.50
20672;DHT22;10495;50.922;4.760;2023-04-24T01:26:47;11.30;89.00
20672;DHT22;10495;50.922;4.760;2023-04-24T01:29:13;11.60;87.90
20672;DHT22;10495;50.922;4.760;2023-04-24T01:31:39;11.50;87.60
20672;DHT22;10495;50.922;4.760;2023-04-24T01:34:05;11.50;87.60
20672;DHT22;10495;50.922;4.760;2023-04-24T01:36:32;11.50;87.80
20672;DHT22;10495;50.922;4.760;2023-04-24T01:38:59;11.40;88.10
20672;DHT22;10495;50.922;4.760;2023-04-24T01:41:28;11.40;87.90
20672;DHT22;10495;50.922;4.760;2023-04-24T01:43:54;11.50;87.80
20672;DHT22;10495;50.922;4.760;2023-04-24T01:46:20;11.40;87.80
20672;DHT22;10495;50.922;4.760;2023-04-24T01:48:46;11.30;88.40
20672;DHT22;10495;50.922;4.760;2023-04-24T01:51:13;11.20;88.60
20672;DHT22;10495;50.922;4.760;2023-04-24T01:53:40;11.40;88.10
20672;DHT22;10495;50.922;4.760;2023-04-24T01:56:08;11.40;87.70
20672;DHT22;10495;50.922;4.760;2023-04-24T01:58:35;11.20;88.30
20672;DHT22;10495;50.922;4.760;2023-04-24T02:01:00;11.20;88.30
20672;DHT22;10495;50.922;4.760;2023-04-24T02:03:26;11.20;88.70
20672;DHT22;10495;50.922;4.760;2023-04-24T02:05:52;11.00;89.00
20672;DHT22;10495;50.922;4.760;2023-04-24T02:08:18;11.00;89.30
20672;DHT22;10495;50.922;4.760;2023-04-24T02:10:44;11.10;88.90
20672;DHT22;10495;50.922;4.760;2023-04-24T02:13:10;10.90;88.90
20672;DHT22;10495;50.922;4.760;2023-04-24T02:15:35;11.00;89.10
20672;DHT22;10495;50.922;4.760;2023-04-24T02:18:01;11.10;88.60
20672;DHT22;10495;50.922;4.760;2023-04-24T02:20:28;11.00;88.70
20672;DHT22;10495;50.922;4.760;2023-04-24T02:22:54;11.10;88.60
20672;DHT22;10495;50.922;4.760;2023-04-24T02:25:20;11.30;88.10
20672;DHT22;10495;50.922;4.760;2023-04-24T02:27:46;11.40;87.40
20672;DHT22;10495;50.922;4.760;2023-04-24T02:30:12;11.30;87.80
20672;DHT22;10495;50.922;4.760;2023-04-24T02:32:39;10.80;89.30
20672;DHT22;10495;50.922;4.760;2023-04-24T02:35:06;10.90;89.30
20672;DHT22;10495;50.922;4.760;2023-04-24T02:37:32;11.00;89.10
20672;DHT22;10495;50.922;4.760;2023-04-24T02:39:58;11.10;88.50
20672;DHT22;10495;50.922;4.760;2023-04-24T02:42:25;11.00;89.50
20672;DHT22;10495;50.922;4.760;2023-04-24T02:44:52;11.00;89.60
20672;DHT22;10495;50.922;4.760;2023-04-24T02:47:18;10.80;90.10
20672;DHT22;10495;50.922;4.760;2023-04-24T02:49:49;10.70;90.50
20672;DHT22;10495;50.922;4.760;2023-04-24T02:52:20;10.80;90.40
20672;DHT22;10495;50.922;4.760;2023-04-24T02:54:46;10.90;90.30
20672;DHT22;10495;50.922;4.760;2023-04-24T02:57:16;10.80;90.50
20672;DHT22;10495;50.922;4.760;2023-04-24T02:59:58;11.00;90.10
20672;DHT22;10495;50.922;4.760;2023-04-24T03:02:24;11.00;89.80
20672;DHT22;10495;50.922;4.760;2023-04-24T03:04:49;11.00;90.20
20672;DHT22;10495;50.922;4.760;2023-04-24T03:07:24;10.90;90.20
20672;DHT22;10495;50.922;4.760;2023-04-24T03:09:52;10.70;90.50
20672;DHT22;10495;50.922;4.760;2023-04-24T03:12:18;10.80;90.60
20672;DHT22;10495;50.922;4.760;2023-04-24T03:14:44;10.90;90.40
20672;DHT22;10495;50.922;4.760;2023-04-24T03:17:10;11.00;90.40
20672;DHT22;10495;50.922;4.760;2023-04-24T03:19:36;10.90;90.50
20672;DHT22;10495;50.922;4.760;2023-04-24T03:22:02;11.10;90.30
20672;DHT22;10495;50.922;4.760;2023-04-24T03:24:30;11.10;90.30
20672;DHT22;10495;50.922;4.760;2023-04-24T03:27:00;10.80;90.50
20672;DHT22;10495;50.922;4.760;2023-04-24T03:29:26;10.70;90.80
20672;DHT22;10495;50.922;4.760;2023-04-24T03:31:52;10.90;90.40
20672;DHT22;10495;50.922;4.760;2023-04-24T03:34:19;10.80;90.40
20672;DHT22;10495;50.922;4.760;2023-04-24T03:36:51;10.70;90.70
20672;DHT22;10495;50.922;4.760;2023-04-24T03:39:18;10.50;91.10
20672;DHT22;10495;50.922;4.760;2023-04-24T03:41:43;10.40;91.50
20672;DHT22;10495;50.922;4.760;2023-04-24T03:44:09;10.30;91.60
20672;DHT22;10495;50.922;4.760;2023-04-24T03:46:35;10.30;91.80
20672;DHT22;10495;50.922;4.760;2023-04-24T03:49:00;10.60;91.20
20672;DHT22;10495;50.922;4.760;2023-04-24T03:51:26;10.70;90.90
20672;DHT22;10495;50.922;4.760;2023-04-24T03:53:53;10.60;91.20
20672;DHT22;10495;50.922;4.760;2023-04-24T03:56:19;10.50;91.40
20672;DHT22;10495;50.922;4.760;2023-04-24T03:58:45;10.60;91.40
20672;DHT22;10495;50.922;4.760;2023-04-24T04:01:10;10.70;91.10
20672;DHT22;10495;50.922;4.760;2023-04-24T04:03:37;10.80;91.10
20672;DHT22;10495;50.922;4.760;2023-04-24T04:06:03;10.70;91.30
20672;DHT22;10495;50.922;4.760;2023-04-24T04:08:28;10.80;91.30
20672;DHT22;10495;50.922;4.760;2023-04-24T04:10:54;10.80;91.20
20672;DHT22;10495;50.922;4.760;2023-04-24T04:13:20;10.90;91.30
20672;DHT22;10495;50.922;4.760;2023-04-24T04:15:45;10.90;91.10
20672;DHT22;10495;50.922;4.760;2023-04-24T04:18:11;10.90;91.20
20672;DHT22;10495;50.922;4.760;2023-04-24T04:20:37;10.80;91.50
20672;DHT22;10495;50.922;4.760;2023-04-24T04:23:02;10.80;91.40
20672;DHT22;10495;50.922;4.760;2023-04-24T04:25:28;10.80;91.50
20672;DHT22;10495;50.922;4.760;2023-04-24T04:27:54;10.80;91.60
20672;DHT22;10495;50.922;4.760;2023-04-24T04:30:20;10.80;91.60
20672;DHT22;10495;50.922;4.760;2023-04-24T04:32:46;10.90;91.70
20672;DHT22;10495;50.922;4.760;2023-04-24T04:35:12;11.00;91.30
20672;DHT22;10495;50.922;4.760;2023-04-24T04:37:37;10.90;91.40
20672;DHT22;10495;50.922;4.760;2023-04-24T04:40:04;11.00;91.40
20672;DHT22;10495;50.922;4.760;2023-04-24T04:42:32;11.00;91.30
20672;DHT22;10495;50.922;4.760;2023-04-24T04:44:59;11.10;91.20
20672;DHT22;10495;50.922;4.760;2023-04-24T04:47:25;11.10;91.10
20672;DHT22;10495;50.922;4.760;2023-04-24T04:49:52;11.10;91.00
20672;DHT22;10495;50.922;4.760;2023-04-24T04:52:18;10.90;91.30
20672;DHT22;10495;50.922;4.760;2023-04-24T04:54:44;10.90;91.40
20672;DHT22;10495;50.922;4.760;2023-04-24T04:57:10;10.90;91.10
20672;DHT22;10495;50.922;4.760;2023-04-24T04:59:36;10.90;91.30
20672;DHT22;10495;50.922;4.760;2023-04-24T05:02:02;10.90;91.30
20672;DHT22;10495;50.922;4.760;2023-04-24T05:04:28;10.90;91.30
20672;DHT22;10495;50.922;4.760;2023-04-24T05:06:53;10.90;91.60
20672;DHT22;10495;50.922;4.760;2023-04-24T05:09:19;10.80;91.60
20672;DHT22;10495;50.922;4.760;2023-04-24T05:11:45;10.90;91.60
20672;DHT22;10495;50.922;4.760;2023-04-24T05:14:10;10.90;91.60
20672;DHT22;10495;50.922;4.760;2023-04-24T05:16:38;11.20;91.10
20672;DHT22;10495;50.922;4.760;2023-04-24T05:19:03;11.10;91.00
20672;DHT22;10495;50.922;4.760;2023-04-24T05:21:29;11.00;91.10
20672;DHT22;10495;50.922;4.760;2023-04-24T05:23:56;11.00;91.00
20672;DHT22;10495;50.922;4.760;2023-04-24T05:26:21;10.90;91.20
20672;DHT22;10495;50.922;4.760;2023-04-24T05:28:48;10.80;91.30
20672;DHT22;10495;50.922;4.760;2023-04-24T05:31:13;10.70;91.40
20672;DHT22;10495;50.922;4.760;2023-04-24T05:33:39;10.70;91.50
20672;DHT22;10495;50.922;4.760;2023-04-24T05:36:06;10.70;91.60
20672;DHT22;10495;50.922;4.760;2023-04-24T05:38:31;10.90;91.50
20672;DHT22;10495;50.922;4.760;2023-04-24T05:40:57;10.90;90.90
20672;DHT22;10495;50.922;4.760;2023-04-24T05:43:23;10.90;90.80
20672;DHT22;10495;50.922;4.760;2023-04-24T05:45:48;10.90;90.90
20672;DHT22;10495;50.922;4.760;2023-04-24T05:48:14;10.70;91.10
20672;DHT22;10495;50.922;4.760;2023-04-24T05:50:40;10.80;90.80
20672;DHT22;10495;50.922;4.760;2023-04-24T05:53:05;10.90;90.60
20672;DHT22;10495;50.922;4.760;2023-04-24T05:55:32;10.80;90.70
20672;DHT22;10495;50.922;4.760;2023-04-24T05:57:58;10.70;90.70
20672;DHT22;10495;50.922;4.760;2023-04-24T06:00:25;10.60;90.70
20672;DHT22;10495;50.922;4.760;2023-04-24T06:02:51;10.60;91.10
20672;DHT22;10495;50.922;4.760;2023-04-24T06:05:18;10.60;91.10
20672;DHT22;10495;50.922;4.760;2023-04-24T06:07:44;10.70;90.90
20672;DHT22;10495;50.922;4.760;2023-04-24T06:10:10;10.80;90.70
20672;DHT22;10495;50.922;4.760;2023-04-24T06:12:36;10.70;90.70
20672;DHT22;10495;50.922;4.760;2023-04-24T06:15:02;10.50;91.20
20672;DHT22;10495;50.922;4.760;2023-04-24T06:17:28;10.50;91.30
20672;DHT22;10495;50.922;4.760;2023-04-24T06:19:54;10.60;91.20
20672;DHT22;10495;50.922;4.760;2023-04-24T06:22:19;10.60;91.10
20672;DHT22;10495;50.922;4.760;2023-04-24T06:24:45;10.60;91.30
20672;DHT22;10495;50.922;4.760;2023-04-24T06:27:11;10.60;91.10
20672;DHT22;10495;50.922;4.760;2023-04-24T06:29:36;10.70;91.00
20672;DHT22;10495;50.922;4.760;2023-04-24T06:32:02;10.80;91.10
20672;DHT22;10495;50.922;4.760;2023-04-24T06:34:28;10.90;90.80
20672;DHT22;10495;50.922;4.760;2023-04-24T06:36:54;10.80;90.80
20672;DHT22;10495;50.922;4.760;2023-04-24T06:39:20;10.70;91.10
20672;DHT22;10495;50.922;4.760;2023-04-24T06:41:46;10.80;90.90
20672;DHT22;10495;50.922;4.760;2023-04-24T06:44:11;10.80;90.90
20672;DHT22;10495;50.922;4.760;2023-04-24T06:46:37;10.80;90.80
20672;DHT22;10495;50.922;4.760;2023-04-24T06:49:03;10.70;91.00
20672;DHT22;10495;50.922;4.760;2023-04-24T06:51:29;10.70;90.90
20672;DHT22;10495;50.922;4.760;2023-04-24T06:53:54;10.60;91.30
20672;DHT22;10495;50.922;4.760;2023-04-24T06:56:22;10.60;91.40
20672;DHT22;10495;50.922;4.760;2023-04-24T06:58:47;10.50;91.60
20672;DHT22;10495;50.922;4.760;2023-04-24T07:01:13;10.60;91.70
20672;DHT22;10495;50.922;4.760;2023-04-24T07:03:39;10.50;91.90
20672;DHT22;10495;50.922;4.760;2023-04-24T07:06:05;10.50;91.70
20672;DHT22;10495;50.922;4.760;2023-04-24T07:08:31;10.70;91.70
20672;DHT22;10495;50.922;4.760;2023-04-24T07:10:58;10.90;91.50
20672;DHT22;10495;50.922;4.760;2023-04-24T07:13:25;11.10;91.00
20672;DHT22;10495;50.922;4.760;2023-04-24T07:15:51;11.00;90.70
20672;DHT22;10495;50.922;4.760;2023-04-24T07:18:20;10.70;91.50
20672;DHT22;10495;50.922;4.760;2023-04-24T07:20:45;10.70;91.70
20672;DHT22;10495;50.922;4.760;2023-04-24T07:23:11;10.80;91.70
20672;DHT22;10495;50.922;4.760;2023-04-24T07:25:37;11.00;91.40
20672;DHT22;10495;50.922;4.760;2023-04-24T07:28:04;11.10;91.00
20672;DHT22;10495;50.922;4.760;2023-04-24T07:30:30;11.10;90.90
20672;DHT22;10495;50.922;4.760;2023-04-24T07:32:58;11.00;91.30
20672;DHT22;10495;50.922;4.760;2023-04-24T07:35:24;11.00;91.50
20672;DHT22;10495;50.922;4.760;2023-04-24T07:37:51;11.10;91.20
20672;DHT22;10495;50.922;4.760;2023-04-24T07:40:18;11.10;91.30
20672;DHT22;10495;50.922;4.760;2023-04-24T07:42:44;11.20;90.90
20672;DHT22;10495;50.922;4.760;2023-04-24T07:45:09;11.30;91.00
20672;DHT22;10495;50.922;4.760;2023-04-24T07:47:35;11.10;91.20
20672;DHT22;10495;50.922;4.760;2023-04-24T07:50:02;11.20;90.80
20672;DHT22;10495;50.922;4.760;2023-04-24T07:52:28;11.20;90.80
20672;DHT22;10495;50.922;4.760;2023-04-24T07:54:54;11.20;90.80
20672;DHT22;10495;50.922;4.760;2023-04-24T07:57:24;11.10;90.60
20672;DHT22;10495;50.922;4.760;2023-04-24T07:59:50;11.20;90.40
20672;DHT22;10495;50.922;4.760;2023-04-24T08:02:16;11.30;90.00
20672;DHT22;10495;50.922;4.760;2023-04-24T08:04:42;11.20;90.40
20672;DHT22;10495;50.922;4.760;2023-04-24T08:07:07;11.20;90.80
20672;DHT22;10495;50.922;4.760;2023-04-24T08:09:33;11.20;90.60
20672;DHT22;10495;50.922;4.760;2023-04-24T08:11:59;11.20;90.60
20672;DHT22;10495;50.922;4.760;2023-04-24T08:14:25;11.20;90.10
20672;DHT22;10495;50.922;4.760;2023-04-24T08:16:53;11.10;90.00
20672;DHT22;10495;50.922;4.760;2023-04-24T08:19:19;11.20;89.90
20672;DHT22;10495;50.922;4.760;2023-04-24T08:21:45;11.00;90.10
20672;DHT22;10495;50.922;4.760;2023-04-24T08:24:10;10.90;90.90
20672;DHT22;10495;50.922;4.760;2023-04-24T08:26:36;10.80;90.90
20672;DHT22;10495;50.922;4.760;2023-04-24T08:29:02;10.90;91.30
20672;DHT22;10495;50.922;4.760;2023-04-24T08:31:27;11.00;91.30
20672;DHT22;10495;50.922;4.760;2023-04-24T08:33:56;11.10;91.20
20672;DHT22;10495;50.922;4.760;2023-04-24T08:36:25;11.10;91.50
20672;DHT22;10495;50.922;4.760;2023-04-24T08:38:52;11.30;91.40
20672;DHT22;10495;50.922;4.760;2023-04-24T08:41:18;11.30;91.40
20672;DHT22;10495;50.922;4.760;2023-04-24T08:43:46;11.50;91.50
20672;DHT22;10495;50.922;4.760;2023-04-24T08:46:13;11.80;91.40
20672;DHT22;10495;50.922;4.760;2023-04-24T08:48:39;11.60;90.90
20672;DHT22;10495;50.922;4.760;2023-04-24T08:51:07;11.80;90.40
20672;DHT22;10495;50.922;4.760;2023-04-24T08:53:35;11.90;90.20
20672;DHT22;10495;50.922;4.760;2023-04-24T08:56:01;12.10;90.60
20672;DHT22;10495;50.922;4.760;2023-04-24T08:58:28;12.50;91.50
20672;DHT22;10495;50.922;4.760;2023-04-24T09:00:57;13.10;90.80
20672;DHT22;10495;50.922;4.760;2023-04-24T09:03:24;13.40;90.10
20672;DHT22;10495;50.922;4.760;2023-04-24T09:05:51;13.60;89.80
20672;DHT22;10495;50.922;4.760;2023-04-24T09:08:18;13.80;88.60
20672;DHT22;10495;50.922;4.760;2023-04-24T09:10:44;14.00;87.10
20672;DHT22;10495;50.922;4.760;2023-04-24T09:13:10;13.90;84.90
20672;DHT22;10495;50.922;4.760;2023-04-24T09:15:38;13.60;83.80
20672;DHT22;10495;50.922;4.760;2023-04-24T09:18:04;13.50;82.50
20672;DHT22;10495;50.922;4.760;2023-04-24T09:20:31;13.30;83.00
20672;DHT22;10495;50.922;4.760;2023-04-24T09:22:57;13.00;84.20
20672;DHT22;10495;50.922;4.760;2023-04-24T09:25:30;13.00;84.30
20672;DHT22;10495;50.922;4.760;2023-04-24T09:28:01;12.90;84.00
20672;DHT22;10495;50.922;4.760;2023-04-24T09:30:27;12.80;85.20
20672;DHT22;10495;50.922;4.760;2023-04-24T09:33:12;13.00;86.40
20672;DHT22;10495;50.922;4.760;2023-04-24T09:35:42;13.10;88.70
20672;DHT22;10495;50.922;4.760;2023-04-24T09:38:13;13.70;90.50
20672;DHT22;10495;50.922;4.760;2023-04-24T09:40:39;14.60;88.50
20672;DHT22;10495;50.922;4.760;2023-04-24T09:43:10;15.30;85.70
20672;DHT22;10495;50.922;4.760;2023-04-24T09:45:37;15.60;82.60
20672;DHT22;10495;50.922;4.760;2023-04-24T09:48:04;16.00;80.00
20672;DHT22;10495;50.922;4.760;2023-04-24T09:50:32;15.20;76.50
20672;DHT22;10495;50.922;4.760;2023-04-24T09:52:59;15.00;77.00
20672;DHT22;10495;50.922;4.760;2023-04-24T09:55:27;14.90;77.00
20672;DHT22;10495;50.922;4.760;2023-04-24T09:57:57;14.70;76.10
20672;DHT22;10495;50.922;4.760;2023-04-24T10:00:30;14.20;77.70
20672;DHT22;10495;50.922;4.760;2023-04-24T10:02:58;14.00;79.40
20672;DHT22;10495;50.922;4.760;2023-04-24T10:05:29;14.00;81.10
20672;DHT22;10495;50.922;4.760;2023-04-24T10:08:09;14.30;79.80
20672;DHT22;10495;50.922;4.760;2023-04-24T10:10:39;14.70;80.80
20672;DHT22;10495;50.922;4.760;2023-04-24T10:13:05;14.80;76.80
20672;DHT22;10495;50.922;4.760;2023-04-24T10:15:33;14.70;77.70
20672;DHT22;10495;50.922;4.760;2023-04-24T10:17:59;15.00;76.80
20672;DHT22;10495;50.922;4.760;2023-04-24T10:20:28;15.10;73.00
20672;DHT22;10495;50.922;4.760;2023-04-24T10:22:57;14.90;70.90
20672;DHT22;10495;50.922;4.760;2023-04-24T10:25:25;14.80;71.60
20672;DHT22;10495;50.922;4.760;2023-04-24T10:27:52;14.70;71.30
20672;DHT22;10495;50.922;4.760;2023-04-24T10:30:19;14.30;71.40
20672;DHT22;10495;50.922;4.760;2023-04-24T10:32:45;14.20;73.10
20672;DHT22;10495;50.922;4.760;2023-04-24T10:35:15;14.40;73.20
20672;DHT22;10495;50.922;4.760;2023-04-24T10:37:44;14.30;73.30
20672;DHT22;10495;50.922;4.760;2023-04-24T10:40:12;14.50;71.00
20672;DHT22;10495;50.922;4.760;2023-04-24T10:42:41;14.50;73.10
20672;DHT22;10495;50.922;4.760;2023-04-24T10:45:28;14.40;74.50
20672;DHT22;10495;50.922;4.760;2023-04-24T10:48:07;14.30;72.50
20672;DHT22;10495;50.922;4.760;2023-04-24T10:50:51;14.30;72.10
20672;DHT22;10495;50.922;4.760;2023-04-24T10:53:21;14.20;71.20
20672;DHT22;10495;50.922;4.760;2023-04-24T10:56:06;14.20;73.30
20672;DHT22;10495;50.922;4.760;2023-04-24T10:58:37;14.30;74.00
20672;DHT22;10495;50.922;4.760;2023-04-24T11:01:04;13.90;72.20
20672;DHT22;10495;50.922;4.760;2023-04-24T11:03:31;14.10;70.10
20672;DHT22;10495;50.922;4.760;2023-04-24T11:06:00;14.10;72.20
20672;DHT22;10495;50.922;4.760;2023-04-24T11:08:30;14.10;72.60
20672;DHT22;10495;50.922;4.760;2023-04-24T11:11:01;13.90;72.10
20672;DHT22;10495;50.922;4.760;2023-04-24T11:14:00;14.20;71.20
20672;DHT22;10495;50.922;4.760;2023-04-24T11:18:51;14.10;70.70
20672;DHT22;10495;50.922;4.760;2023-04-24T11:21:20;14.30;71.90
20672;DHT22;10495;50.922;4.760;2023-04-24T11:23:46;14.30;68.60
20672;DHT22;10495;50.922;4.760;2023-04-24T11:26:16;14.30;70.20
20672;DHT22;10495;50.922;4.760;2023-04-24T11:28:49;14.50;70.50
20672;DHT22;10495;50.922;4.760;2023-04-24T11:31:34;14.50;70.60
20672;DHT22;10495;50.922;4.760;2023-04-24T11:34:12;14.60;71.20
20672;DHT22;10495;50.922;4.760;2023-04-24T11:36:39;14.70;69.20
20672;DHT22;10495;50.922;4.760;2023-04-24T11:39:06;14.70;68.00
20672;DHT22;10495;50.922;4.760;2023-04-24T11:41:33;14.60;68.50
20672;DHT22;10495;50.922;4.760;2023-04-24T11:43:59;14.60;67.80
20672;DHT22;10495;50.922;4.760;2023-04-24T11:46:28;14.70;67.30
20672;DHT22;10495;50.922;4.760;2023-04-24T11:48:56;14.80;67.40
20672;DHT22;10495;50.922;4.760;2023-04-24T11:51:23;14.80;66.70
20672;DHT22;10495;50.922;4.760;2023-04-24T11:53:50;14.80;66.90
20672;DHT22;10495;50.922;4.760;2023-04-24T11:56:20;14.80;66.30
20672;DHT22;10495;50.922;4.760;2023-04-24T11:58:47;14.90;67.10
20672;DHT22;10495;50.922;4.760;2023-04-24T12:01:13;14.80;66.80
20672;DHT22;10495;50.922;4.760;2023-04-24T12:03:39;14.70;67.50
20672;DHT22;10495;50.922;4.760;2023-04-24T12:06:09;14.70;67.20
20672;DHT22;10495;50.922;4.760;2023-04-24T12:08:35;14.90;66.80
20672;DHT22;10495;50.922;4.760;2023-04-24T12:11:02;15.10;67.00
20672;DHT22;10495;50.922;4.760;2023-04-24T12:13:28;15.10;67.00
20672;DHT22;10495;50.922;4.760;2023-04-24T12:15:54;15.00;68.10
20672;DHT22;10495;50.922;4.760;2023-04-24T12:18:23;15.40;69.80
20672;DHT22;10495;50.922;4.760;2023-04-24T12:20:49;15.60;67.20
20672;DHT22;10495;50.922;4.760;2023-04-24T12:23:14;15.60;65.20
20672;DHT22;10495;50.922;4.760;2023-04-24T12:25:40;15.70;64.30
20672;DHT22;10495;50.922;4.760;2023-04-24T12:30:35;15.60;63.60
20672;DHT22;10495;50.922;4.760;2023-04-24T12:33:01;15.70;63.10
20672;DHT22;10495;50.922;4.760;2023-04-24T12:35:30;15.50;61.90
20672;DHT22;10495;50.922;4.760;2023-04-24T12:38:08;15.40;62.60
20672;DHT22;10495;50.922;4.760;2023-04-24T12:40:34;15.20;62.90
20672;DHT22;10495;50.922;4.760;2023-04-24T12:43:00;14.90;64.50
20672;DHT22;10495;50.922;4.760;2023-04-24T12:45:26;14.90;64.80
20672;DHT22;10495;50.922;4.760;2023-04-24T12:47:53;15.00;64.20
20672;DHT22;10495;50.922;4.760;2023-04-24T12:50:19;15.10;65.80
20672;DHT22;10495;50.922;4.760;2023-04-24T12:52:44;15.00;64.90
20672;DHT22;10495;50.922;4.760;2023-04-24T12:55:11;14.70;63.70
20672;DHT22;10495;50.922;4.760;2023-04-24T12:57:38;14.70;66.70
20672;DHT22;10495;50.922;4.760;2023-04-24T13:00:07;14.80;65.70
20672;DHT22;10495;50.922;4.760;2023-04-24T13:02:33;14.90;65.10
20672;DHT22;10495;50.922;4.760;2023-04-24T13:04:59;14.80;64.40
20672;DHT22;10495;50.922;4.760;2023-04-24T13:07:25;14.80;64.40
20672;DHT22;10495;50.922;4.760;2023-04-24T13:09:51;14.70;64.70
20672;DHT22;10495;50.922;4.760;2023-04-24T13:12:17;14.60;65.30
20672;DHT22;10495;50.922;4.760;2023-04-24T13:14:43;14.80;65.00
20672;DHT22;10495;50.922;4.760;2023-04-24T13:17:09;14.90;65.00
20672;DHT22;10495;50.922;4.760;2023-04-24T13:19:36;15.00;64.00
20672;DHT22;10495;50.922;4.760;2023-04-24T13:22:03;15.10;63.40
20672;DHT22;10495;50.922;4.760;2023-04-24T13:24:29;15.20;63.40
20672;DHT22;10495;50.922;4.760;2023-04-24T13:26:54;15.30;63.30
20672;DHT22;10495;50.922;4.760;2023-04-24T13:29:22;14.90;62.60
20672;DHT22;10495;50.922;4.760;2023-04-24T13:31:50;15.00;63.70
20672;DHT22;10495;50.922;4.760;2023-04-24T13:34:17;15.20;64.20
20672;DHT22;10495;50.922;4.760;2023-04-24T13:36:43;14.90;60.50
20672;DHT22;10495;50.922;4.760;2023-04-24T13:39:09;15.00;63.90
20672;DHT22;10495;50.922;4.760;2023-04-24T13:41:36;15.10;62.30
20672;DHT22;10495;50.922;4.760;2023-04-24T13:44:02;15.00;63.70
20672;DHT22;10495;50.922;4.760;2023-04-24T13:46:28;14.90;63.90
20672;DHT22;10495;50.922;4.760;2023-04-24T13:48:53;15.00;63.30
20672;DHT22;10495;50.922;4.760;2023-04-24T13:51:19;15.00;61.80
20672;DHT22;10495;50.922;4.760;2023-04-24T13:53:45;15.00;64.10
20672;DHT22;10495;50.922;4.760;2023-04-24T13:56:11;14.70;61.00
20672;DHT22;10495;50.922;4.760;2023-04-24T13:58:38;14.70;65.80
20672;DHT22;10495;50.922;4.760;2023-04-24T14:01:04;14.80;65.80
20672;DHT22;10495;50.922;4.760;2023-04-24T14:03:30;14.80;64.50
20672;DHT22;10495;50.922;4.760;2023-04-24T14:05:56;14.90;64.80
20672;DHT22;10495;50.922;4.760;2023-04-24T14:08:21;15.00;62.70
20672;DHT22;10495;50.922;4.760;2023-04-24T14:10:47;15.30;64.70
20672;DHT22;10495;50.922;4.760;2023-04-24T14:13:13;15.40;62.30
20672;DHT22;10495;50.922;4.760;2023-04-24T14:15:39;14.80;59.80
20672;DHT22;10495;50.922;4.760;2023-04-24T14:18:04;14.80;62.10
20672;DHT22;10495;50.922;4.760;2023-04-24T14:20:30;14.80;63.00
20672;DHT22;10495;50.922;4.760;2023-04-24T14:22:56;15.00;63.20
20672;DHT22;10495;50.922;4.760;2023-04-24T14:25:24;15.20;61.90
20672;DHT22;10495;50.922;4.760;2023-04-24T14:27:50;15.40;64.10
20672;DHT22;10495;50.922;4.760;2023-04-24T14:30:16;15.60;62.40
20672;DHT22;10495;50.922;4.760;2023-04-24T14:32:42;15.60;59.10
20672;DHT22;10495;50.922;4.760;2023-04-24T14:35:08;15.40;61.10
20672;DHT22;10495;50.922;4.760;2023-04-24T14:37:34;15.40;61.60
20672;DHT22;10495;50.922;4.760;2023-04-24T14:40:00;15.70;60.60
20672;DHT22;10495;50.922;4.760;2023-04-24T14:42:25;15.60;59.50
20672;DHT22;10495;50.922;4.760;2023-04-24T14:44:51;15.60;59.80
20672;DHT22;10495;50.922;4.760;2023-04-24T14:47:16;15.50;58.90
20672;DHT22;10495;50.922;4.760;2023-04-24T14:49:47;15.10;59.00
20672;DHT22;10495;50.922;4.760;2023-04-24T14:52:13;15.10;59.70
20672;DHT22;10495;50.922;4.760;2023-04-24T14:54:39;15.20;60.10
20672;DHT22;10495;50.922;4.760;2023-04-24T14:57:04;15.20;59.80
20672;DHT22;10495;50.922;4.760;2023-04-24T14:59:30;14.80;60.00
20672;DHT22;10495;50.922;4.760;2023-04-24T15:01:57;14.70;59.20
20672;DHT22;10495;50.922;4.760;2023-04-24T15:04:26;14.50;59.70
20672;DHT22;10495;50.922;4.760;2023-04-24T15:06:53;14.40;60.00
20672;DHT22;10495;50.922;4.760;2023-04-24T15:09:23;14.60;61.30
20672;DHT22;10495;50.922;4.760;2023-04-24T15:11:50;14.30;59.50
20672;DHT22;10495;50.922;4.760;2023-04-24T15:14:17;14.30;59.20
20672;DHT22;10495;50.922;4.760;2023-04-24T15:16:43;14.10;59.40
20672;DHT22;10495;50.922;4.760;2023-04-24T15:19:09;13.90;59.80
20672;DHT22;10495;50.922;4.760;2023-04-24T15:21:38;14.10;59.60
20672;DHT22;10495;50.922;4.760;2023-04-24T15:24:06;14.20;60.00
20672;DHT22;10495;50.922;4.760;2023-04-24T15:26:32;14.00;59.20
20672;DHT22;10495;50.922;4.760;2023-04-24T15:28:58;14.00;59.00
20672;DHT22;10495;50.922;4.760;2023-04-24T15:31:23;13.80;59.30
20672;DHT22;10495;50.922;4.760;2023-04-24T15:33:50;13.90;60.70